FYLZ/LUD METAR and TAF weather

Enter ICAO airport designator
Station Type Date Time Source
FYLZ METAR 2020/12/04 08:00 UTC NOAA

FYLZ 040800Z AUTO 20018KT //// // ////// 23/12 Q1013


Station Type Date Time Source
FYLZ Decoded METAR 2020/12/04 08:00 UTC NOAA

Luderitz / Diaz Point, Namibia (FYLZ) 26-41S 015-15E
Dec 04, 2020 - 03:00 AM EST / 2020.12.04 0800 UTC
Wind: from the SSW (200 degrees) at 21 MPH (18 KT):0
Temperature: 73 F (23 C)
Dew Point: 53 F (12 C)
Relative Humidity: 49%
Pressure (altimeter): 29.91 in. Hg (1013 hPa)
ob: FYLZ 040800Z AUTO 20018KT //// // ////// 23/12 Q1013
cycle: 8

Station Type Date Time Source
FYLZ TAF 2014/11/15 15:19 UTC NOAA

TAF FYLZ 151400Z 1515/1524 18015G28KT CAVOK
BECMG 1518/1520 16020KT

Example: see airport list